Time;durP1;ratioP1;P1;durP2;ratioP2;P2;SDS_P1;SDS_P2;PMS_P1;PMS_P2;Temp;Humidity;BMP_temperature;BMP_pressure;BME280_temperature;BME280_humidity;BME280_pressure;Samples;Min_cycle;Max_cycle;Signal;HPM_P1;HPM_P2
2021/12/14 00:00:45;;;;;;;19.92;9.57;;;;;;;7.76;84.54;101092.88;5061644;28;20048;-83
2021/12/14 00:03:15;;;;;;;24.88;11.73;;;;;;;7.78;84.70;101096.28;5061446;28;20530;-83
2021/12/14 00:05:42;;;;;;;28.90;13.02;;;;;;;7.77;84.80;101089.31;5061611;28;20044;-84
2021/12/14 00:08:12;;;;;;;32.47;14.93;;;;;;;7.78;84.68;101086.56;5056048;28;20089;-83
2021/12/14 00:10:48;;;;;;;32.72;15.48;;;;;;;7.78;84.78;101088.34;5082561;28;20040;-84
2021/12/14 00:13:30;;;;;;;35.47;16.15;;;;;;;7.75;84.60;101089.38;5093971;28;20063;-83
2021/12/14 00:15:57;;;;;;;43.60;18.23;;;;;;;7.78;84.71;101096.28;5051597;28;20127;-84
2021/12/14 00:18:25;;;;;;;40.50;17.67;;;;;;;7.78;84.60;101091.00;5068085;28;20040;-83
2021/12/14 00:20:57;;;;;;;37.35;17.15;;;;;;;7.77;84.63;101097.25;5047920;28;20052;-84
2021/12/14 00:26:14;;;;;;;14.48;8.27;;;;;;;7.78;85.01;101104.22;5021947;28;20044;-83
2021/12/14 00:28:40;;;;;;;26.98;11.75;;;;;;;7.78;84.77;101107.72;5045489;28;20058;-83
2021/12/14 00:31:10;;;;;;;25.05;11.05;;;;;;;7.79;84.54;101105.94;5064637;28;20058;-84
2021/12/14 00:33:39;;;;;;;27.88;12.55;;;;;;;7.80;84.49;101115.56;5045663;28;20059;-84
2021/12/14 00:36:10;;;;;;;28.25;14.02;;;;;;;7.76;84.17;101117.56;5059716;28;20454;-84
2021/12/14 00:38:38;;;;;;;34.40;16.40;;;;;;;7.80;84.60;101115.56;5059613;28;20073;-84
2021/12/14 00:41:14;;;;;;;27.77;13.10;;;;;;;7.73;84.35;101109.75;5048540;28;20040;-84
2021/12/14 00:43:41;;;;;;;28.02;13.02;;;;;;;7.79;84.48;101116.53;5038363;28;20045;-83
2021/12/14 00:46:08;;;;;;;29.95;12.95;;;;;;;7.78;84.48;101115.66;5059227;28;20124;-83
2021/12/14 00:48:35;;;;;;;30.70;14.88;;;;;;;7.78;84.47;101115.66;5046473;28;22420;-83
2021/12/14 00:51:03;;;;;;;36.42;16.63;;;;;;;7.80;84.51;101120.84;5081648;28;20051;-83
2021/12/14 00:53:31;;;;;;;37.15;18.00;;;;;;;7.79;84.56;101117.38;5065140;28;20043;-83
2021/12/14 00:56:01;;;;;;;36.13;18.08;;;;;;;7.78;84.40;101118.28;5033921;28;20064;-83
2021/12/14 00:58:30;;;;;;;33.83;17.67;;;;;;;7.79;84.59;101120.00;5038961;28;20068;-83
2021/12/14 01:01:02;;;;;;;36.15;16.55;;;;;;;7.79;84.64;101122.66;5053118;28;20127;-83
2021/12/14 01:03:31;;;;;;;30.58;14.48;;;;;;;7.77;84.52;101127.16;5048429;28;20043;-83
2021/12/14 01:05:59;;;;;;;32.55;14.18;;;;;;;7.79;84.58;101122.66;5033342;28;20491;-83
2021/12/14 01:08:34;;;;;;;27.55;13.68;;;;;;;7.77;84.42;101121.03;5046539;28;20422;-84
2021/12/14 01:11:06;;;;;;;27.98;13.85;;;;;;;7.78;84.44;101107.72;5011221;28;20043;-83
2021/12/14 01:13:36;;;;;;;25.10;11.95;;;;;;;7.79;84.58;101114.72;5046578;28;20118;-83
2021/12/14 01:16:18;;;;;;;30.80;13.30;;;;;;;7.78;84.18;101112.16;5061828;28;20416;-83
2021/12/14 01:18:51;;;;;;;17.23;8.80;;;;;;;7.77;84.31;101115.75;5028595;28;20048;-83
2021/12/14 01:24:03;;;;;;;29.85;12.57;;;;;;;7.77;84.27;101113.09;5061753;28;20044;-84
2021/12/14 01:26:36;;;;;;;27.83;12.80;;;;;;;7.77;84.23;101108.66;5014136;28;20063;-83
2021/12/14 01:29:07;;;;;;;28.55;12.18;;;;;;;7.79;84.04;101108.59;5040168;28;20055;-83
2021/12/14 01:31:38;;;;;;;25.65;11.52;;;;;;;7.78;84.03;101107.72;5044662;28;20049;-84
2021/12/14 01:34:20;;;;;;;27.27;13.60;;;;;;;7.73;83.79;101103.63;5029201;28;20040;-83
2021/12/14 01:36:53;;;;;;;32.80;13.35;;;;;;;7.78;84.01;101105.06;5045969;28;20044;-84
2021/12/14 01:42:05;;;;;;;28.80;12.18;;;;;;;7.76;83.88;101114.91;5059009;28;20059;-83
2021/12/14 01:45:02;;;;;;;21.30;10.65;;;;;;;7.78;83.93;101114.81;5065502;28;20048;-84
2021/12/14 01:47:41;;;;;;;21.38;9.75;;;;;;;7.77;84.03;101107.81;5002965;28;20047;-83
2021/12/14 01:50:13;;;;;;;25.35;12.45;;;;;;;7.77;83.84;101103.38;5039327;28;20105;-84
2021/12/14 01:52:58;;;;;;;24.58;12.10;;;;;;;7.78;83.84;101110.34;5058705;28;20044;-83
2021/12/14 01:55:30;;;;;;;23.30;11.70;;;;;;;7.79;83.81;101114.72;5046373;28;20400;-83
2021/12/14 01:57:59;;;;;;;28.00;12.30;;;;;;;7.79;83.96;101101.50;5045271;28;20105;-83
2021/12/14 02:00:40;;;;;;;19.17;9.65;;;;;;;7.74;83.82;101102.72;5045366;28;20044;-83
2021/12/14 02:03:11;;;;;;;18.45;9.65;;;;;;;7.78;83.71;101097.13;5073302;28;20544;-83
2021/12/14 02:05:47;;;;;;;21.02;10.20;;;;;;;7.76;83.53;101096.41;5024369;28;20048;-83
2021/12/14 02:08:18;;;;;;;14.35;7.22;;;;;;;7.79;83.82;101096.22;5043489;28;20067;-83
2021/12/14 02:10:48;;;;;;;25.20;11.00;;;;;;;7.79;84.00;101098.84;5077814;28;20066;-83
2021/12/14 02:13:30;;;;;;;22.70;10.73;;;;;;;7.73;83.51;101098.34;5059211;28;20049;-84
2021/12/14 02:15:59;;;;;;;22.63;10.30;;;;;;;7.78;84.02;101097.13;5045805;28;20131;-84
2021/12/14 02:18:49;;;;;;;27.42;10.63;;;;;;;7.78;83.77;101104.22;4999035;28;20044;-84
2021/12/14 02:21:17;;;;;;;30.48;12.93;;;;;;;7.80;83.80;101103.19;5074455;28;20046;-83
2021/12/14 02:23:48;;;;;;;27.27;12.00;;;;;;;7.80;83.65;101108.47;5066130;28;20125;-83
2021/12/14 02:26:18;;;;;;;29.38;12.13;;;;;;;7.81;83.96;101111.97;5043679;28;20067;-83
2021/12/14 02:28:51;;;;;;;30.40;12.48;;;;;;;7.80;83.67;101105.00;5059625;28;20045;-83
2021/12/14 02:31:21;;;;;;;34.13;15.15;;;;;;;7.81;83.65;101110.22;5056001;28;20138;-83
2021/12/14 02:33:50;;;;;;;30.55;13.15;;;;;;;7.80;83.92;101112.94;5059370;28;20097;-83
2021/12/14 02:36:25;;;;;;;32.95;13.55;;;;;;;7.77;83.50;101107.81;5042679;28;20403;-84
2021/12/14 02:39:07;;;;;;;27.70;14.00;;;;;;;7.78;83.67;101113.00;5044613;28;20053;-83
2021/12/14 02:41:50;;;;;;;29.90;13.55;;;;;;;7.72;83.69;101107.22;5034587;28;20044;-83
2021/12/14 02:44:20;;;;;;;32.80;13.73;;;;;;;7.78;84.14;101120.94;5029981;28;20741;-83
2021/12/14 02:46:55;;;;;;;32.47;14.65;;;;;;;7.78;83.95;101112.16;5069658;28;20048;-83
2021/12/14 02:49:25;;;;;;;34.38;14.30;;;;;;;7.79;83.83;101112.09;5063131;28;20147;-83
2021/12/14 02:51:59;;;;;;;36.05;14.73;;;;;;;7.78;83.80;101104.22;5052011;28;20078;-83
2021/12/14 02:54:32;;;;;;;34.53;15.40;;;;;;;7.76;83.85;101109.63;5046818;28;20321;-83
2021/12/14 02:57:04;;;;;;;35.78;14.15;;;;;;;7.77;83.98;101107.81;5054323;28;20041;-83
2021/12/14 02:59:34;;;;;;;35.57;15.77;;;;;;;7.77;83.86;101113.94;5054115;28;20043;-83
2021/12/14 03:02:08;;;;;;;33.00;11.98;;;;;;;7.78;83.78;101112.16;5068840;28;20036;-83
2021/12/14 03:04:45;;;;;;;34.33;13.15;;;;;;;7.76;83.81;101111.38;5030816;28;20576;-83
2021/12/14 03:07:13;;;;;;;38.58;14.38;;;;;;;7.79;83.90;101111.22;5043769;28;20053;-83
2021/12/14 03:09:59;;;;;;;29.17;12.40;;;;;;;7.77;83.80;101108.66;5018138;28;20045;-83
2021/12/14 03:12:31;;;;;;;42.20;15.85;;;;;;;7.77;83.74;101115.75;5021587;28;20048;-83
2021/12/14 03:15:07;;;;;;;30.90;11.85;;;;;;;7.77;83.61;101110.47;5025300;28;20076;-84
2021/12/14 03:17:34;;;;;;;37.97;15.02;;;;;;;7.78;83.94;101115.66;5040983;28;20041;-84
2021/12/14 03:20:12;;;;;;;39.55;15.95;;;;;;;7.73;83.58;101111.56;5039528;28;20392;-83
2021/12/14 03:22:51;;;;;;;38.20;14.77;;;;;;;7.74;83.67;101119.41;5019388;28;20080;-83
2021/12/14 03:25:20;;;;;;;37.25;14.50;;;;;;;7.79;83.87;101113.88;5024093;28;20058;-83
2021/12/14 03:27:48;;;;;;;44.33;15.65;;;;;;;7.79;83.72;101119.16;5023925;28;20473;-83
2021/12/14 03:30:29;;;;;;;40.47;15.32;;;;;;;7.73;83.51;101115.06;5024543;28;20064;-83
2021/12/14 03:33:08;;;;;;;37.45;13.95;;;;;;;7.79;83.47;101116.53;5035808;28;20382;-83
2021/12/14 03:35:43;;;;;;;40.38;16.75;;;;;;;7.74;83.53;101114.13;5028658;28;20633;-83
2021/12/14 03:38:23;;;;;;;40.80;16.65;;;;;;;7.74;83.65;101119.41;5028253;28;20072;-83
2021/12/14 03:41:19;;;;;;;38.03;16.42;;;;;;;7.68;83.56;101126.81;5040412;28;20099;-83
2021/12/14 03:44:01;;;;;;;33.70;13.98;;;;;;;7.70;83.33;101123.16;5017459;28;20055;-83
2021/12/14 03:46:56;;;;;;;38.00;15.57;;;;;;;7.75;83.42;101122.91;5001255;28;20061;-83
2021/12/14 03:49:29;;;;;;;35.90;14.13;;;;;;;7.74;83.57;101121.22;5015376;28;20047;-83
2021/12/14 03:51:57;;;;;;;40.13;14.73;;;;;;;7.77;83.73;101113.09;5049080;28;20044;-84
2021/12/14 03:54:25;;;;;;;37.78;14.23;;;;;;;7.79;83.57;101113.88;5052142;28;20036;-84
2021/12/14 03:56:53;;;;;;;28.25;11.70;;;;;;;7.79;83.56;101103.31;5051952;28;20052;-83
2021/12/14 03:59:28;;;;;;;34.08;12.85;;;;;;;7.76;83.26;101092.88;5065000;28;20060;-83
2021/12/14 04:01:57;;;;;;;40.70;15.55;;;;;;;7.77;83.44;101079.59;5066488;28;20050;-83
2021/12/14 04:04:30;;;;;;;36.40;13.32;;;;;;;7.77;83.34;101084.03;5061601;28;20399;-84
2021/12/14 04:07:00;;;;;;;36.63;13.82;;;;;;;7.79;83.56;101083.00;5036165;28;20044;-84
2021/12/14 04:09:30;;;;;;;32.25;12.30;;;;;;;7.79;83.42;101096.22;5047377;28;20136;-84
2021/12/14 04:11:58;;;;;;;38.28;14.60;;;;;;;7.78;83.56;101091.84;5054252;28;20108;-84
2021/12/14 04:14:29;;;;;;;37.80;15.43;;;;;;;7.79;83.46;101098.84;5065707;28;20048;-84
2021/12/14 04:16:57;;;;;;;44.30;15.63;;;;;;;7.80;83.36;101105.00;5035923;28;20521;-84
2021/12/14 04:19:28;;;;;;;41.42;15.70;;;;;;;7.79;83.23;101098.84;5057345;28;20032;-83
2021/12/14 04:22:01;;;;;;;44.60;17.37;;;;;;;7.76;83.28;101095.50;5046534;28;20103;-84
2021/12/14 04:24:30;;;;;;;46.50;14.77;;;;;;;7.77;83.49;101084.88;5078855;28;20043;-84
2021/12/14 04:27:02;;;;;;;49.33;19.67;;;;;;;7.77;83.37;101076.94;5057602;28;20049;-83
2021/12/14 04:29:30;;;;;;;48.28;18.15;;;;;;;7.77;83.60;101079.59;5044399;28;20049;-83
2021/12/14 04:32:01;;;;;;;46.60;16.42;;;;;;;7.79;83.49;101080.34;5052493;28;20049;-83
2021/12/14 04:34:30;;;;;;;50.25;18.52;;;;;;;7.77;83.31;101065.50;5035640;28;20045;-84
2021/12/14 04:36:58;;;;;;;49.55;17.73;;;;;;;7.79;83.54;101068.94;5077454;28;20388;-84
2021/12/14 04:53:32;;;;;;;49.80;17.20;;;;;;;7.64;83.41;101056.59;5046480;28;20043;-83
2021/12/14 04:55:59;;;;;;;53.03;19.42;;;;;;;7.74;83.75;101055.97;4976681;28;20056;-83
2021/12/14 04:58:52;;;;;;;60.10;21.75;;;;;;;7.65;83.45;101048.53;5044162;28;20037;-84
2021/12/14 05:01:19;;;;;;;55.28;21.10;;;;;;;7.74;83.57;101061.25;4974195;28;20049;-83
2021/12/14 05:03:57;;;;;;;57.30;20.27;;;;;;;7.74;83.27;101063.91;5058111;28;20040;-83
2021/12/14 05:06:32;;;;;;;47.75;16.45;;;;;;;7.77;83.37;101050.50;5046444;28;20049;-83
2021/12/14 05:09:27;;;;;;;59.72;20.25;;;;;;;7.73;83.33;101043.66;5059047;28;20102;-83
2021/12/14 05:12:07;;;;;;;44.47;17.10;;;;;;;7.72;83.29;101052.56;4986275;28;20058;-83
2021/12/14 05:14:44;;;;;;;57.22;20.67;;;;;;;7.76;83.43;101038.22;5037206;28;20043;-83
2021/12/14 05:17:16;;;;;;;59.88;21.52;;;;;;;7.74;83.31;101063.91;5069368;28;20040;-83
2021/12/14 05:19:45;;;;;;;58.28;21.83;;;;;;;7.74;83.28;101063.06;5064762;28;20583;-83
2021/12/14 05:22:16;;;;;;;57.13;21.67;;;;;;;7.75;83.27;101065.59;5073403;28;20040;-83
2021/12/14 05:24:51;;;;;;;63.35;20.13;;;;;;;7.74;83.48;101053.31;5061621;28;20060;-84
2021/12/14 05:27:26;;;;;;;64.75;21.95;;;;;;;7.75;83.08;101043.59;5060328;28;20140;-84
2021/12/14 05:30:14;;;;;;;60.55;21.15;;;;;;;7.72;83.24;101033.19;5039996;28;20127;-83
2021/12/14 05:33:03;;;;;;;62.67;24.65;;;;;;;7.69;83.18;101036.03;5024951;28;20119;-85
2021/12/14 05:35:30;;;;;;;64.75;27.05;;;;;;;7.75;83.45;101039.16;5072745;28;20495;-85
2021/12/14 05:37:58;;;;;;;76.57;30.95;;;;;;;7.77;83.11;101039.06;5049373;28;20052;-85
2021/12/14 05:43:07;;;;;;;73.75;31.73;;;;;;;7.75;83.40;101035.66;5047055;28;20437;-84
2021/12/14 05:45:49;;;;;;;50.38;21.00;;;;;;;7.75;83.31;101028.56;5068056;28;20071;-83
2021/12/14 05:48:26;;;;;;;61.85;25.02;;;;;;;7.75;83.17;101036.50;4998606;28;20048;-84
2021/12/14 05:50:57;;;;;;;57.33;22.05;;;;;;;7.75;83.31;101033.84;5065574;28;20084;-83
2021/12/14 05:53:29;;;;;;;51.70;20.27;;;;;;;7.76;83.29;101040.00;5046212;28;20045;-83
2021/12/14 05:55:59;;;;;;;53.78;21.63;;;;;;;7.77;83.18;101025.84;5045108;28;20105;-83
2021/12/14 05:58:33;;;;;;;50.08;20.63;;;;;;;7.74;83.22;101018.94;5007567;28;20059;-84
2021/12/14 06:01:05;;;;;;;56.92;21.63;;;;;;;7.76;82.92;101026.78;5030051;28;20060;-83
2021/12/14 06:03:39;;;;;;;;;;;;;;;7.56;83.75;101026.13;5077977;28;20515;-83
2021/12/14 06:06:14;;;;;;;57.78;22.35;;;;;;;7.68;82.99;101024.56;5063792;28;20223;-83
2021/12/14 06:08:42;;;;;;;50.40;22.40;;;;;;;7.75;83.06;101028.56;5045716;28;20044;-83
2021/12/14 06:11:22;;;;;;;50.35;20.45;;;;;;;7.77;83.14;101031.13;5035893;28;20075;-84
2021/12/14 06:13:50;;;;;;;45.78;18.77;;;;;;;7.78;83.07;101024.91;5064227;28;20067;-83
2021/12/14 06:16:22;;;;;;;43.30;18.73;;;;;;;7.76;82.82;101013.56;5071036;28;20064;-83
2021/12/14 06:18:50;;;;;;;42.75;16.85;;;;;;;7.79;82.94;101008.13;5075858;28;20040;-83
2021/12/14 06:21:31;;;;;;;39.72;16.85;;;;;;;7.75;82.60;101006.56;4997809;28;20063;-83
2021/12/14 06:24:05;;;;;;;38.20;16.65;;;;;;;7.76;82.53;101002.97;5067237;28;20132;-83
2021/12/14 06:26:46;;;;;;;39.90;16.85;;;;;;;7.77;82.88;101008.19;5061400;28;20552;-83
2021/12/14 06:29:30;;;;;;;38.60;14.90;;;;;;;7.75;82.55;101018.00;5034182;28;20118;-83
2021/12/14 06:32:05;;;;;;;34.30;14.10;;;;;;;7.72;82.39;101012.03;5050394;28;20499;-84
2021/12/14 06:34:32;;;;;;;30.40;13.13;;;;;;;7.79;82.73;101013.41;5066684;28;20048;-89
2021/12/14 06:37:30;;;;;;;34.40;14.52;;;;;;;7.68;82.51;101006.06;5080499;28;20047;-88
2021/12/14 06:40:19;;;;;;;31.55;13.73;;;;;;;7.66;82.54;101005.31;5034018;28;20492;-84
2021/12/14 06:42:59;;;;;;;30.92;12.50;;;;;;;7.70;82.43;100993.63;5033356;28;20040;-83
2021/12/14 06:45:34;;;;;;;25.17;11.55;;;;;;;7.75;82.29;100990.72;5032310;28;20040;-82
2021/12/14 06:48:12;;;;;;;31.27;13.02;;;;;;;7.77;82.57;100996.75;5044876;28;20101;-83
2021/12/14 06:50:49;;;;;;;30.25;11.70;;;;;;;7.75;82.29;101007.41;5035795;28;20109;-82
2021/12/14 06:53:44;;;;;;;29.13;10.50;;;;;;;7.75;82.17;101017.16;5004157;28;20484;-82
2021/12/14 06:56:41;;;;;;;23.23;9.80;;;;;;;7.75;82.44;101015.34;4990072;28;20052;-81
2021/12/14 06:59:28;;;;;;;25.80;9.68;;;;;;;7.75;82.52;101002.13;5050299;28;20060;-83
2021/12/14 07:02:08;;;;;;;24.05;9.02;;;;;;;7.75;82.25;101017.16;5029259;28;20052;-85
2021/12/14 07:05:07;;;;;;;25.27;10.40;;;;;;;7.73;82.44;101027.81;5040096;28;20121;-82
2021/12/14 07:07:41;;;;;;;30.65;10.75;;;;;;;7.74;82.36;101018.94;5054926;28;20491;-83
2021/12/14 07:10:11;;;;;;;28.67;11.25;;;;;;;7.75;82.05;101035.66;5063833;28;20603;-81
2021/12/14 07:12:40;;;;;;;31.02;11.27;;;;;;;7.73;82.12;101048.94;5047137;28;20048;-83
2021/12/14 07:15:11;;;;;;;27.13;10.10;;;;;;;7.71;82.03;101048.22;5046265;28;20446;-83
2021/12/14 07:17:43;;;;;;;21.45;9.52;;;;;;;7.74;82.15;101050.69;5032398;28;20037;-83
2021/12/14 07:20:22;;;;;;;26.67;10.55;;;;;;;7.73;82.13;101046.31;5028634;28;20052;-82
2021/12/14 07:23:03;;;;;;;27.25;10.77;;;;;;;7.65;81.80;101035.31;5065484;28;20051;-82
2021/12/14 07:25:39;;;;;;;31.67;12.30;;;;;;;7.68;81.70;101032.50;5046414;28;20059;-82
2021/12/14 07:28:09;;;;;;;26.65;10.88;;;;;;;7.72;81.78;101038.47;5063006;28;20385;-84
2021/12/14 07:30:46;;;;;;;26.95;11.57;;;;;;;7.66;81.69;101039.69;5063861;28;20052;-84
2021/12/14 07:33:26;;;;;;;27.55;10.30;;;;;;;7.65;81.89;101058.28;5074853;28;20191;-82
2021/12/14 07:36:05;;;;;;;28.70;11.57;;;;;;;7.71;81.87;101071.13;5047167;28;20636;-82
2021/12/14 07:38:48;;;;;;;31.10;11.80;;;;;;;7.64;81.75;101064.50;5051884;28;20053;-82
2021/12/14 07:41:35;;;;;;;28.13;11.25;;;;;;;7.60;81.47;101080.53;5048073;28;20506;-81
2021/12/14 07:44:33;;;;;;;27.35;10.90;;;;;;;7.63;81.58;101076.00;5050357;28;20121;-82
2021/12/14 07:47:14;;;;;;;26.35;11.15;;;;;;;7.59;81.79;101094.69;5063744;28;20067;-81
2021/12/14 07:49:54;;;;;;;34.22;12.20;;;;;;;7.67;81.83;101102.19;5051125;28;20048;-83
2021/12/14 07:52:38;;;;;;;29.55;12.43;;;;;;;7.58;81.93;101113.25;5066361;28;20533;-83
2021/12/14 07:55:19;;;;;;;22.75;9.27;;;;;;;7.65;81.80;101100.56;5061244;28;20045;-83
2021/12/14 07:57:48;;;;;;;26.92;11.52;;;;;;;7.66;81.91;101087.28;5094523;27;20044;-84
2021/12/14 08:00:28;;;;;;;27.92;11.90;;;;;;;7.61;81.84;101092.81;5049204;28;20052;-82
2021/12/14 08:02:58;;;;;;;35.38;12.32;;;;;;;7.66;81.95;101112.84;5062825;28;20064;-83
2021/12/14 08:05:32;;;;;;;27.30;10.98;;;;;;;7.64;81.89;101114.75;5066506;28;20596;-83
2021/12/14 08:08:54;;;;;;;30.52;12.23;;;;;;;7.56;81.83;101097.50;5051375;28;20041;-82
2021/12/14 08:13:55;;;;;;;32.78;13.23;;;;;;;7.66;82.19;101110.19;5078665;28;20054;-82
2021/12/14 08:16:22;;;;;;;35.65;12.98;;;;;;;7.66;82.00;101105.78;5053585;28;20058;-82
2021/12/14 08:18:50;;;;;;;24.40;10.50;;;;;;;7.68;81.89;101100.38;5049673;28;20407;-82
2021/12/14 08:21:22;;;;;;;36.38;14.00;;;;;;;7.67;81.84;101094.25;5052357;28;20048;-83
2021/12/14 08:23:56;;;;;;;36.08;15.93;;;;;;;7.66;81.82;101099.63;5035381;28;20139;-82
2021/12/14 08:26:33;;;;;;;29.42;11.48;;;;;;;7.62;81.73;101091.03;5046684;28;20055;-82
2021/12/14 08:29:07;;;;;;;30.73;11.65;;;;;;;7.67;82.07;101088.97;5065868;28;20128;-83
2021/12/14 08:31:43;;;;;;;29.75;12.43;;;;;;;7.65;81.83;101084.72;5079661;28;20085;-83
2021/12/14 08:34:25;;;;;;;30.35;12.77;;;;;;;7.65;82.00;101084.72;5039951;28;20071;-83
2021/12/14 08:37:07;;;;;;;31.17;12.55;;;;;;;7.63;81.90;101092.72;5017333;28;20098;-84
2021/12/14 08:39:45;;;;;;;33.65;13.77;;;;;;;7.65;81.93;101090.84;5059488;28;20361;-83
2021/12/14 08:42:17;;;;;;;36.08;13.68;;;;;;;7.70;81.92;101091.44;5076223;28;20049;-83
2021/12/14 08:44:53;;;;;;;28.42;12.93;;;;;;;7.69;82.08;101092.38;5046702;28;20708;-82
2021/12/14 08:47:22;;;;;;;29.23;12.60;;;;;;;7.69;82.17;101097.66;5050821;28;20052;-82
2021/12/14 08:49:49;;;;;;;28.30;12.70;;;;;;;7.72;82.25;101092.22;5047749;28;20043;-82
2021/12/14 08:52:16;;;;;;;34.55;13.63;;;;;;;7.73;82.23;101096.53;5061620;28;20036;-82
2021/12/14 08:54:43;;;;;;;31.10;13.95;;;;;;;7.74;82.25;101087.69;5047037;28;20036;-81
2021/12/14 08:57:13;;;;;;;37.75;14.73;;;;;;;7.75;81.92;101092.03;5047864;28;20040;-83
2021/12/14 08:59:42;;;;;;;33.65;14.50;;;;;;;7.75;82.15;101092.03;5078560;28;20044;-84
2021/12/14 09:02:12;;;;;;;29.73;13.55;;;;;;;7.76;82.21;101088.47;5065177;28;20040;-84
2021/12/14 09:04:44;;;;;;;32.65;14.75;;;;;;;7.74;82.00;101092.13;5064095;28;20445;-84
2021/12/14 09:07:26;;;;;;;31.05;12.98;;;;;;;7.68;81.98;101100.38;5061589;28;20040;-83
2021/12/14 09:09:55;;;;;;;33.80;13.50;;;;;;;7.76;82.21;101090.22;5045309;28;20063;-84
2021/12/14 09:12:35;;;;;;;36.40;13.70;;;;;;;7.72;81.97;101094.00;5059726;28;20044;-83
2021/12/14 09:15:12;;;;;;;33.20;14.15;;;;;;;7.73;82.08;101091.25;5064491;28;20364;-83
2021/12/14 09:17:39;;;;;;;;;;;;;;;7.57;82.72;101101.84;5073178;28;20052;-83
2021/12/14 09:20:32;;;;;;;31.15;12.80;;;;;;;7.64;82.46;101104.16;5063025;28;19928;-82
2021/12/14 09:23:06;;;;;;;30.80;11.52;;;;;;;7.71;82.20;101101.09;5047630;28;20684;-83
2021/12/14 09:25:34;;;;;;;32.70;14.07;;;;;;;7.76;82.35;101101.69;5062379;28;20106;-83
2021/12/14 09:28:02;;;;;;;39.58;14.40;;;;;;;7.77;82.33;101108.66;5064545;28;20102;-83
2021/12/14 09:30:34;;;;;;;37.13;14.10;;;;;;;7.78;82.23;101093.66;5061832;28;20044;-83
2021/12/14 09:33:01;;;;;;;31.17;12.63;;;;;;;7.78;82.16;101094.50;5059518;28;20124;-83
2021/12/14 09:35:33;;;;;;;34.13;14.98;;;;;;;7.81;82.34;101093.47;5064358;28;20553;-82
2021/12/14 09:38:00;;;;;;;34.42;14.45;;;;;;;7.80;82.34;101094.41;5062238;28;20052;-83
2021/12/14 09:40:31;;;;;;;31.80;13.88;;;;;;;7.80;82.26;101094.41;5063045;28;20036;-84
2021/12/14 09:42:58;;;;;;;33.50;14.75;;;;;;;7.82;82.25;101098.69;5059632;28;20129;-83
2021/12/14 09:45:29;;;;;;;28.25;12.52;;;;;;;7.81;82.22;101096.09;5041362;28;20063;-82
2021/12/14 09:47:56;;;;;;;34.17;13.20;;;;;;;7.81;82.17;101086.41;5045519;28;20052;-82
2021/12/14 09:50:28;;;;;;;31.80;13.65;;;;;;;7.81;82.06;101093.47;5051747;28;20055;-83
2021/12/14 09:52:56;;;;;;;32.45;14.05;;;;;;;7.86;82.06;101095.84;5037202;28;20446;-82
2021/12/14 09:55:27;;;;;;;30.75;12.60;;;;;;;7.84;82.27;101088.03;5059835;28;20048;-82
2021/12/14 09:57:56;;;;;;;29.83;13.40;;;;;;;7.85;82.00;101086.22;5060647;28;20044;-82
2021/12/14 10:00:58;;;;;;;31.23;13.90;;;;;;;7.76;82.07;101087.59;5078380;28;20048;-82
2021/12/14 10:03:25;;;;;;;27.33;13.50;;;;;;;7.87;82.17;101081.72;5023762;28;20061;-82
2021/12/14 10:05:56;;;;;;;29.00;13.55;;;;;;;7.87;82.16;101073.78;5057220;28;20040;-82
2021/12/14 10:08:32;;;;;;;29.85;14.27;;;;;;;7.88;82.34;101072.81;5065030;28;20044;-84
2021/12/14 10:11:22;;;;;;;35.75;15.55;;;;;;;7.81;82.27;101078.47;5066513;28;20051;-90
2021/12/14 10:13:50;;;;;;;33.88;14.27;;;;;;;7.88;82.29;101073.66;5038199;28;20479;-85
2021/12/14 10:16:43;;;;;;;38.50;16.50;;;;;;;7.77;82.31;101073.44;5065575;28;20060;-84
2021/12/14 10:19:18;;;;;;;35.70;16.48;;;;;;;7.85;82.09;101080.94;5045967;28;20055;-85
2021/12/14 10:21:49;;;;;;;35.30;16.17;;;;;;;7.92;81.75;101083.16;5075874;28;20048;-84
2021/12/14 10:24:16;;;;;;;36.42;15.55;;;;;;;7.89;82.12;101083.31;5080768;28;20070;-85
2021/12/14 10:26:47;;;;;;;40.28;16.98;;;;;;;7.88;82.15;101086.91;5059875;28;20044;-85
2021/12/14 10:29:15;;;;;;;41.42;17.17;;;;;;;7.89;82.34;101085.13;5076751;28;20041;-85
2021/12/14 10:32:03;;;;;;;43.95;18.50;;;;;;;7.80;82.08;101084.69;5075554;28;20036;-85
2021/12/14 10:34:32;;;;;;;;;;;;;;;7.68;82.45;101097.75;5014761;28;20141;-84
2021/12/14 10:37:15;;;;;;;45.65;17.75;;;;;;;7.80;82.00;101094.41;5060550;28;19924;-85
2021/12/14 10:42:54;;;;;;;36.33;15.10;;;;;;;7.89;82.07;101091.25;5029023;28;20036;-85
2021/12/14 10:45:23;;;;;;;29.70;13.60;;;;;;;7.88;82.26;101086.03;5060361;28;20053;-85
2021/12/14 10:47:50;;;;;;;30.10;13.40;;;;;;;7.90;81.96;101092.09;5064063;28;20450;-85
2021/12/14 10:50:22;;;;;;;35.42;15.50;;;;;;;7.85;81.80;101089.72;5061018;28;20054;-85
2021/12/14 10:52:49;;;;;;;40.42;17.42;;;;;;;7.89;81.75;101093.06;5033248;28;20068;-85
2021/12/14 10:55:24;;;;;;;34.17;16.08;;;;;;;7.87;81.55;101095.78;5065011;28;20043;-85
2021/12/14 10:57:53;;;;;;;32.80;16.40;;;;;;;7.89;81.69;101098.34;5043592;28;20425;-85
2021/12/14 11:00:31;;;;;;;39.03;17.83;;;;;;;7.86;81.52;101095.84;5064862;28;20490;-85
2021/12/14 11:03:13;;;;;;;40.45;18.30;;;;;;;7.75;80.89;101105.25;5064606;28;20486;-85
2021/12/14 11:05:44;;;;;;;36.78;15.48;;;;;;;7.84;81.17;101109.19;5047107;28;20406;-84
2021/12/14 11:08:32;;;;;;;36.53;16.80;;;;;;;7.82;80.99;101103.97;5056185;28;20044;-85
2021/12/14 11:11:00;;;;;;;37.00;15.55;;;;;;;7.79;81.24;101111.22;5020758;28;20389;-85
2021/12/14 11:13:38;;;;;;;38.45;16.17;;;;;;;7.73;81.12;101112.41;5004998;28;20056;-85
2021/12/14 11:16:06;;;;;;;35.40;16.45;;;;;;;7.81;81.25;101099.63;5012080;28;20041;-85
2021/12/14 11:18:33;;;;;;;35.53;16.85;;;;;;;7.82;81.24;101106.63;5042861;28;20049;-85
2021/12/14 11:21:07;;;;;;;44.10;19.90;;;;;;;7.81;81.01;101104.03;5009004;28;20049;-85
2021/12/14 11:23:37;;;;;;;39.03;17.10;;;;;;;7.77;81.00;101107.81;4978059;28;20132;-86
2021/12/14 11:26:09;;;;;;;43.83;19.38;;;;;;;7.78;80.88;101105.06;5042106;28;20093;-86
2021/12/14 11:28:43;;;;;;;37.30;17.43;;;;;;;7.76;80.80;101103.44;5037774;28;20114;-86
2021/12/14 11:31:22;;;;;;;33.95;15.65;;;;;;;7.76;80.70;101101.69;5018182;28;20053;-83
2021/12/14 11:33:58;;;;;;;36.30;18.45;;;;;;;7.77;80.68;101094.59;4999445;28;20041;-82
2021/12/14 11:36:33;;;;;;;38.17;17.33;;;;;;;7.75;80.52;101102.59;5021263;28;20045;-84
2021/12/14 11:39:06;;;;;;;43.65;20.08;;;;;;;7.93;82.18;101092.78;5004523;28;20501;-84
2021/12/14 11:41:54;;;;;;;40.28;18.23;;;;;;;7.85;81.17;101095.00;5031995;28;20102;-84
2021/12/14 11:44:31;;;;;;;39.28;18.38;;;;;;;7.88;80.60;101092.19;5021257;28;20048;-84
2021/12/14 11:49:52;;;;;;;42.47;18.65;;;;;;;7.91;80.80;101085.88;5034332;28;20085;-82
2021/12/14 11:52:52;;;;;;;46.20;19.75;;;;;;;7.79;80.50;101084.78;5069467;28;20055;-84
2021/12/14 11:55:24;;;;;;;39.42;17.33;;;;;;;7.86;80.63;101083.50;5034998;28;20052;-86
2021/12/14 11:58:06;;;;;;;42.53;17.42;;;;;;;7.77;80.44;101071.66;5083115;28;20099;-85
2021/12/14 12:00:37;;;;;;;41.13;18.70;;;;;;;7.85;80.58;101075.66;5078690;28;20083;-86
2021/12/14 12:03:29;;;;;;;36.42;17.20;;;;;;;7.77;80.46;101065.50;5062834;28;20056;-84
2021/12/14 12:06:13;;;;;;;40.85;17.15;;;;;;;7.85;80.37;101075.66;5041341;28;20059;-82
2021/12/14 12:11:37;;;;;;;43.50;18.83;;;;;;;7.83;80.57;101073.94;5051678;28;20100;-83
2021/12/14 12:14:17;;;;;;;43.45;18.83;;;;;;;7.76;80.23;101067.31;5064819;28;20040;-83
2021/12/14 12:16:44;;;;;;;43.95;20.92;;;;;;;7.85;80.39;101067.72;5046356;28;20044;-83
2021/12/14 12:19:15;;;;;;;51.53;20.83;;;;;;;7.83;80.27;101073.94;5064315;28;20197;-82
2021/12/14 12:21:44;;;;;;;47.75;19.55;;;;;;;7.85;80.40;101073.84;5049499;28;20047;-82
2021/12/14 12:24:32;;;;;;;47.42;21.05;;;;;;;7.75;80.12;101070.03;5049379;28;20043;-82
2021/12/14 12:27:21;;;;;;;46.03;18.55;;;;;;;7.72;80.08;101064.91;5048256;28;20496;-82
2021/12/14 12:30:26;;;;;;;49.75;20.80;;;;;;;7.72;79.90;101060.47;5033380;28;20055;-82